createdAt,value
2023-06-21T00:00:53.031Z,94.53
2023-06-21T00:01:52.995Z,94.43
2023-06-21T00:02:53.092Z,94.53
2023-06-21T00:03:53.032Z,95.03
2023-06-21T00:04:52.930Z,94.82
2023-06-21T00:05:52.942Z,94.73
2023-06-21T00:06:52.955Z,94.43
2023-06-21T00:07:52.982Z,94.57
2023-06-21T00:08:52.954Z,95.57
2023-06-21T00:09:52.993Z,96.58
2023-06-21T00:10:52.951Z,96.47
2023-06-21T00:11:52.910Z,96.17
2023-06-21T00:12:52.916Z,95.47
2023-06-21T00:13:52.920Z,96.02
2023-06-21T00:14:52.927Z,96.27
2023-06-21T00:15:52.920Z,96.52
2023-06-21T00:16:52.872Z,96.42
2023-06-21T00:17:52.989Z,96.47
2023-06-21T00:18:52.889Z,95.87
2023-06-21T00:19:52.896Z,95.12
2023-06-21T00:20:52.913Z,95.52
2023-06-21T00:21:52.883Z,95.82
2023-06-21T00:22:52.821Z,96.32
2023-06-21T00:23:52.874Z,96.56
2023-06-21T00:24:52.881Z,96.06
2023-06-21T00:25:52.956Z,96.97
2023-06-21T00:26:52.821Z,96.87
2023-06-21T00:27:52.838Z,96.77
2023-06-21T00:28:52.826Z,96.97
2023-06-21T00:29:52.848Z,96.77
2023-06-21T00:30:52.861Z,96.87
2023-06-21T00:31:52.876Z,96.56
2023-06-21T00:32:52.877Z,96.22
2023-06-21T00:33:52.788Z,96.77
2023-06-21T00:34:52.781Z,96.17
2023-06-21T00:35:52.788Z,96.32
2023-06-21T00:36:52.841Z,96.52
2023-06-21T00:37:52.776Z,95.56
2023-06-21T00:38:52.755Z,95.26
2023-06-21T00:39:52.746Z,95.66
2023-06-21T00:40:52.721Z,96.36
2023-06-21T00:41:52.749Z,96.47
2023-06-21T00:42:52.782Z,96.26
2023-06-21T00:43:52.766Z,96.56
2023-06-21T00:44:52.790Z,96.56
2023-06-21T00:45:52.709Z,96.26
2023-06-21T00:46:52.833Z,96.31
2023-06-21T00:47:52.874Z,96.97
2023-06-21T00:48:52.694Z,96.06
2023-06-21T00:49:53.708Z,96.36
2023-06-21T00:50:52.702Z,96.06
2023-06-21T00:51:52.704Z,97.11
2023-06-21T00:52:52.700Z,96.91
2023-06-21T00:53:52.713Z,96.91
2023-06-21T00:54:52.655Z,96.81
2023-06-21T00:55:52.666Z,96.36
2023-06-21T00:56:52.677Z,96.36
2023-06-21T00:57:52.661Z,96.41
2023-06-21T00:58:52.807Z,95.61
2023-06-21T00:59:52.632Z,95.71
2023-06-21T01:00:52.668Z,96.61
2023-06-21T01:01:52.682Z,96.01
2023-06-21T01:02:52.696Z,96.86
2023-06-21T01:03:52.600Z,96.45
2023-06-21T01:04:53.647Z,96.36
2023-06-21T01:05:52.669Z,96.26
2023-06-21T01:06:52.620Z,96.86
2023-06-21T01:07:52.610Z,96.26
2023-06-21T01:08:52.616Z,96.96
2023-06-21T01:09:52.602Z,96.96
2023-06-21T01:10:52.678Z,96.96
2023-06-21T01:11:52.605Z,96.96
2023-06-21T01:12:52.585Z,96.56
2023-06-21T01:13:52.558Z,96.96
2023-06-21T01:14:52.594Z,96.26
2023-06-21T01:15:52.594Z,96.66
2023-06-21T01:16:52.561Z,96.86
2023-06-21T01:17:52.632Z,96.45
2023-06-21T01:18:52.556Z,97.06
2023-06-21T01:19:52.616Z,96.45
2023-06-21T01:20:52.547Z,96.45
2023-06-21T01:21:52.520Z,95.55
2023-06-21T01:22:52.585Z,95.86
2023-06-21T01:23:52.548Z,95.45
2023-06-21T01:24:52.565Z,95.50
2023-06-21T01:25:52.509Z,96.10
2023-06-21T01:26:52.492Z,96.00
2023-06-21T01:27:52.498Z,96.60
2023-06-21T01:28:52.510Z,96.20
2023-06-21T01:29:52.496Z,96.50
2023-06-21T01:30:52.498Z,96.45
2023-06-21T01:31:52.510Z,97.00
2023-06-21T01:32:52.496Z,97.05
2023-06-21T01:33:52.445Z,97.45
2023-06-21T01:34:52.455Z,97.05
2023-06-21T01:35:52.501Z,96.95
2023-06-21T01:36:52.444Z,96.85
2023-06-21T01:37:52.466Z,97.35
2023-06-21T01:38:52.455Z,97.05
2023-06-21T01:39:52.450Z,96.95
2023-06-21T01:40:52.456Z,96.15
2023-06-21T01:41:53.400Z,96.85
2023-06-21T01:42:52.410Z,97.09
2023-06-21T01:43:52.422Z,97.60
2023-06-21T01:44:52.455Z,96.69
2023-06-21T01:45:52.411Z,97.20
2023-06-21T01:46:52.401Z,98.00
2023-06-21T01:47:52.403Z,97.90
2023-06-21T01:48:52.387Z,97.60
2023-06-21T01:49:52.360Z,97.60
2023-06-21T01:50:52.377Z,97.50
2023-06-21T01:51:52.378Z,98.00
2023-06-21T01:52:52.368Z,97.70
2023-06-21T01:53:52.372Z,97.40
2023-06-21T01:54:52.362Z,97.15
2023-06-21T01:55:52.348Z,97.15
2023-06-21T01:56:52.336Z,97.05
2023-06-21T01:57:52.338Z,96.50
2023-06-21T01:58:52.368Z,95.54
2023-06-21T01:59:52.329Z,95.84
2023-06-21T02:00:52.343Z,95.89
2023-06-21T02:01:52.349Z,96.69
2023-06-21T02:02:52.334Z,96.50
2023-06-21T02:03:52.304Z,96.89
2023-06-21T02:04:52.368Z,95.95
2023-06-21T02:05:52.307Z,96.80
2023-06-21T02:06:52.282Z,95.89
2023-06-21T02:07:52.240Z,96.69
2023-06-21T02:08:52.279Z,95.75
2023-06-21T02:09:52.270Z,95.99
2023-06-21T02:10:52.261Z,96.59
2023-06-21T02:11:52.239Z,96.44
2023-06-21T02:12:52.225Z,96.74
2023-06-21T02:13:52.246Z,97.55
2023-06-21T02:14:52.286Z,97.34
2023-06-21T02:15:52.227Z,97.04
2023-06-21T02:16:52.219Z,96.24
2023-06-21T02:17:52.292Z,97.14
2023-06-21T02:18:52.244Z,96.94
2023-06-21T02:19:52.183Z,96.44
2023-06-21T02:20:52.213Z,96.74
2023-06-21T02:21:52.196Z,97.34
2023-06-21T02:22:52.236Z,96.34
2023-06-21T02:23:52.204Z,96.44
2023-06-21T02:24:52.172Z,96.64
2023-06-21T02:25:52.211Z,96.54
2023-06-21T02:26:52.171Z,96.64
2023-06-21T02:27:52.173Z,96.64
2023-06-21T02:28:52.167Z,96.24
2023-06-21T02:29:52.142Z,97.14
2023-06-21T02:30:52.239Z,97.24
2023-06-21T02:31:52.111Z,96.74
2023-06-21T02:32:52.159Z,96.48
2023-06-21T02:33:52.140Z,97.14
2023-06-21T02:34:52.100Z,97.64
2023-06-21T02:35:52.132Z,97.04
2023-06-21T02:36:52.185Z,97.14
2023-06-21T02:37:52.116Z,96.94
2023-06-21T02:38:52.118Z,96.69
2023-06-21T02:39:52.113Z,96.14
2023-06-21T02:40:52.101Z,95.84
2023-06-21T02:41:52.091Z,96.04
2023-06-21T02:42:52.091Z,95.43
2023-06-21T02:43:52.074Z,95.39
2023-06-21T02:44:52.084Z,94.79
2023-06-21T02:45:52.099Z,94.68
2023-06-21T02:46:52.175Z,94.28
2023-06-21T02:47:52.135Z,94.13
2023-06-21T02:48:52.034Z,93.62
2023-06-21T02:49:52.044Z,94.98
2023-06-21T02:50:52.023Z,95.18
2023-06-21T02:51:52.023Z,95.38
2023-06-21T02:52:52.043Z,95.53
2023-06-21T02:53:52.008Z,95.03
2023-06-21T02:54:52.005Z,95.88
2023-06-21T02:55:52.024Z,95.58
2023-06-21T02:56:52.012Z,95.28
2023-06-21T02:57:51.983Z,95.58
2023-06-21T02:58:52.017Z,95.58
2023-06-21T02:59:52.021Z,95.13
2023-06-21T03:00:52.026Z,94.83
2023-06-21T03:01:51.954Z,94.73
2023-06-21T03:02:52.072Z,95.03
2023-06-21T03:03:52.014Z,95.18
2023-06-21T03:04:51.935Z,95.23
2023-06-21T03:05:51.946Z,95.58
2023-06-21T03:06:51.949Z,95.13
2023-06-21T03:07:51.952Z,95.13
2023-06-21T03:08:51.937Z,95.23
2023-06-21T03:09:51.952Z,95.53
2023-06-21T03:10:51.921Z,95.33
2023-06-21T03:11:51.935Z,95.33
2023-06-21T03:12:51.920Z,95.13
2023-06-21T03:13:51.896Z,94.93
2023-06-21T03:14:51.879Z,95.33
2023-06-21T03:15:51.921Z,95.13
2023-06-21T03:16:51.912Z,94.83
2023-06-21T03:18:24.552Z,94.93
2023-06-21T03:18:51.866Z,95.53
2023-06-21T03:19:51.849Z,95.69
2023-06-21T03:20:51.919Z,94.73
2023-06-21T03:21:51.840Z,95.53
2023-06-21T03:22:52.492Z,95.23
2023-06-21T03:23:51.810Z,95.59
2023-06-21T03:24:51.810Z,94.68
2023-06-21T03:25:52.873Z,95.09
2023-06-21T03:26:51.850Z,94.48
2023-06-21T03:27:51.813Z,94.89
2023-06-21T03:28:51.796Z,94.73
2023-06-21T03:29:51.810Z,94.93
2023-06-21T03:30:51.837Z,95.39
2023-06-21T03:31:51.844Z,95.03
2023-06-21T03:32:51.840Z,94.83
2023-06-21T03:33:51.773Z,94.98
2023-06-21T03:34:51.817Z,95.23
2023-06-21T03:35:51.805Z,95.73
2023-06-21T03:36:51.869Z,95.33
2023-06-21T03:37:51.796Z,95.49
2023-06-21T03:38:51.792Z,94.89
2023-06-21T03:39:51.786Z,95.18
2023-06-21T03:40:51.759Z,94.98
2023-06-21T03:41:51.747Z,95.09
2023-06-21T03:42:51.758Z,95.18
2023-06-21T03:43:51.738Z,95.33
2023-06-21T03:44:51.717Z,95.23
2023-06-21T03:45:51.754Z,95.43
2023-06-21T03:46:51.772Z,95.29
2023-06-21T03:47:51.695Z,95.53
2023-06-21T03:48:51.665Z,95.29
2023-06-21T03:49:51.689Z,95.29
2023-06-21T03:50:51.700Z,94.54
2023-06-21T03:51:51.672Z,94.54
2023-06-21T03:52:53.031Z,94.84
2023-06-21T03:53:51.655Z,94.44
2023-06-21T03:54:51.729Z,94.98
2023-06-21T03:55:51.679Z,94.89
2023-06-21T03:56:51.665Z,95.04
2023-06-21T03:57:51.641Z,94.94
2023-06-21T03:58:51.650Z,94.64
2023-06-21T03:59:51.628Z,94.74
2023-06-21T04:00:51.635Z,94.74
2023-06-21T04:01:51.655Z,94.54
2023-06-21T04:02:51.664Z,94.34
2023-06-21T04:03:51.603Z,94.54
2023-06-21T04:04:51.586Z,94.13
2023-06-21T04:05:51.606Z,94.24
2023-06-21T04:06:51.603Z,94.64
2023-06-21T04:07:51.587Z,94.94
2023-06-21T04:08:51.611Z,94.54
2023-06-21T04:09:51.580Z,95.24
2023-06-21T04:10:51.592Z,94.64
2023-06-21T04:11:51.614Z,94.74
2023-06-21T04:12:51.584Z,95.04
2023-06-21T04:13:51.533Z,95.04
2023-06-21T04:14:51.555Z,95.34
2023-06-21T04:15:51.555Z,94.64
2023-06-21T04:16:51.557Z,94.84
2023-06-21T04:17:51.530Z,94.49
2023-06-21T04:18:51.535Z,94.04
2023-06-21T04:19:51.546Z,94.54
2023-06-21T04:20:51.668Z,94.74
2023-06-21T04:21:51.556Z,94.74
2023-06-21T04:22:51.523Z,94.84
2023-06-21T04:23:51.514Z,94.54
2023-06-21T04:24:51.528Z,94.74
2023-06-21T04:25:51.476Z,94.94
2023-06-21T04:26:51.492Z,95.04
2023-06-21T04:27:51.484Z,95.54
2023-06-21T04:28:51.487Z,95.69
2023-06-21T04:29:51.479Z,96.80
2023-06-21T04:30:51.528Z,96.80
2023-06-21T04:31:51.480Z,96.89
2023-06-21T04:32:51.537Z,95.99
2023-06-21T04:33:51.458Z,95.39
2023-06-21T04:34:51.476Z,96.59
2023-06-21T04:35:51.475Z,97.30
2023-06-21T04:36:51.457Z,96.69
2023-06-21T04:37:51.455Z,95.89
2023-06-21T04:38:51.375Z,95.69
2023-06-21T04:40:00.826Z,95.49
2023-06-21T04:40:53.661Z,95.14
2023-06-21T04:41:51.499Z,94.79
2023-06-21T04:42:51.404Z,94.29
2023-06-21T04:43:51.381Z,93.04
2023-06-21T04:44:51.401Z,91.80
2023-06-21T04:45:51.441Z,91.05
2023-06-21T04:46:51.420Z,90.50
2023-06-21T04:47:51.640Z,89.76
2023-06-21T04:48:52.193Z,89.06
2023-06-21T04:49:51.442Z,88.32
2023-06-21T04:50:51.381Z,87.27
2023-06-21T04:51:51.408Z,87.34
2023-06-21T04:52:51.703Z,85.15
2023-06-21T04:53:51.380Z,83.91
2023-06-21T04:54:51.329Z,83.81
2023-06-21T04:55:51.350Z,84.01
2023-06-21T04:56:51.325Z,83.67
2023-06-21T04:57:52.300Z,83.67
2023-06-21T04:58:51.304Z,83.57
2023-06-21T04:59:51.358Z,82.03
2023-06-21T05:00:51.338Z,82.34
2023-06-21T05:01:51.322Z,82.14
2023-06-21T05:02:51.738Z,83.47
2023-06-21T05:03:51.268Z,83.27
2023-06-21T05:04:51.291Z,84.27
2023-06-21T05:05:51.432Z,83.81
2023-06-21T05:06:51.284Z,85.71
2023-06-21T05:07:51.355Z,86.75
2023-06-21T05:08:51.341Z,87.53
2023-06-21T05:09:51.296Z,88.13
2023-06-21T05:10:51.268Z,88.13
2023-06-21T05:11:51.228Z,88.13
2023-06-21T05:12:51.236Z,88.09
2023-06-21T05:13:51.306Z,89.94
2023-06-21T05:14:51.296Z,89.58
2023-06-21T05:15:51.353Z,90.28
2023-06-21T05:16:51.259Z,90.67
2023-06-21T05:17:51.255Z,91.72
2023-06-21T05:18:51.211Z,91.22
2023-06-21T05:19:51.173Z,91.17
2023-06-21T05:20:51.140Z,92.52
2023-06-21T05:21:51.240Z,93.17
2023-06-21T05:22:51.164Z,92.52
2023-06-21T05:23:52.181Z,93.93
2023-06-21T05:24:51.139Z,94.02
2023-06-21T05:25:51.147Z,93.52
2023-06-21T05:26:51.156Z,94.87
2023-06-21T05:27:51.184Z,94.23
2023-06-21T05:28:51.212Z,93.52
2023-06-21T05:29:51.229Z,93.38
2023-06-21T05:30:51.179Z,93.88
2023-06-21T05:31:51.089Z,93.28
2023-06-21T05:32:51.103Z,92.74
2023-06-21T05:33:51.116Z,92.43
2023-06-21T05:34:51.130Z,92.13
2023-06-21T05:35:51.152Z,91.24
2023-06-21T05:36:51.113Z,91.44
2023-06-21T05:37:51.136Z,91.53
2023-06-21T05:38:51.075Z,92.28
2023-06-21T05:39:51.211Z,92.24
2023-06-21T05:40:51.140Z,91.53
2023-06-21T05:41:51.076Z,91.13
2023-06-21T05:42:51.151Z,91.19
2023-06-21T05:43:51.151Z,93.29
2023-06-21T05:44:51.041Z,92.43
2023-06-21T05:45:51.122Z,92.13
2023-06-21T05:46:51.060Z,92.74
2023-06-21T05:47:51.083Z,92.58
2023-06-21T05:48:51.029Z,93.08
2023-06-21T05:49:51.079Z,91.53
2023-06-21T05:50:51.043Z,91.24
2023-06-21T05:51:51.088Z,91.19
2023-06-21T05:52:51.011Z,91.39
2023-06-21T05:53:51.007Z,91.19
2023-06-21T05:54:50.979Z,90.89
2023-06-21T05:55:51.071Z,89.59
2023-06-21T05:56:51.000Z,89.89
2023-06-21T05:57:51.003Z,89.79
2023-06-21T05:58:52.058Z,89.55
2023-06-21T05:59:51.122Z,89.09
2023-06-21T06:00:50.965Z,89.05
2023-06-21T06:01:51.002Z,89.35
2023-06-21T06:02:51.052Z,89.15
2023-06-21T06:03:51.019Z,89.65
2023-06-21T06:04:51.030Z,89.45
2023-06-21T06:05:51.054Z,89.01
2023-06-21T06:06:51.004Z,87.71
2023-06-21T06:07:50.956Z,87.91
2023-06-21T06:08:51.051Z,87.87
2023-06-21T06:09:51.062Z,87.37
2023-06-21T06:10:50.964Z,87.96
2023-06-21T06:11:50.970Z,87.76
2023-06-21T06:12:50.973Z,86.87
2023-06-21T06:13:50.891Z,86.47
2023-06-21T06:14:50.919Z,86.27
2023-06-21T06:15:50.895Z,85.37
2023-06-21T06:16:50.880Z,86.43
2023-06-21T06:17:50.978Z,87.23
2023-06-21T06:18:50.879Z,86.27
2023-06-21T06:19:50.895Z,84.87
2023-06-21T06:20:51.549Z,84.67
2023-06-21T06:21:50.833Z,85.37
2023-06-21T06:22:50.885Z,85.07
2023-06-21T06:23:50.876Z,85.37
2023-06-21T06:24:52.692Z,85.42
2023-06-21T06:25:50.842Z,85.37
2023-06-21T06:26:50.933Z,85.33
2023-06-21T06:27:50.990Z,86.03
2023-06-21T06:28:50.854Z,85.72
2023-06-21T06:29:50.812Z,84.53
2023-06-21T06:30:50.826Z,85.13
2023-06-21T06:31:53.500Z,85.93
2023-06-21T06:32:51.971Z,86.13
2023-06-21T06:33:50.942Z,86.52
2023-06-21T06:34:50.864Z,86.03
2023-06-21T06:35:50.903Z,87.32
2023-06-21T06:37:02.965Z,87.23
2023-06-21T06:37:52.785Z,87.02
2023-06-21T06:38:50.807Z,86.43
2023-06-21T06:39:50.759Z,86.52
2023-06-21T06:40:50.736Z,85.23
2023-06-21T06:41:50.731Z,86.27
2023-06-21T06:42:50.772Z,85.63
2023-06-21T06:43:50.743Z,84.63
2023-06-21T06:44:50.787Z,85.42
2023-06-21T06:45:50.724Z,87.42
2023-06-21T06:46:50.709Z,87.08
2023-06-21T06:47:50.762Z,84.99
2023-06-21T06:48:50.754Z,84.83
2023-06-21T06:49:50.757Z,84.79
2023-06-21T06:50:50.696Z,84.53
2023-06-21T06:51:50.702Z,83.23
2023-06-21T06:52:50.730Z,83.99
2023-06-21T06:53:50.742Z,83.59
2023-06-21T06:54:50.777Z,84.39
2023-06-21T06:55:50.749Z,84.59
2023-06-21T06:56:50.654Z,83.25
2023-06-21T06:58:04.573Z,83.25
2023-06-21T06:58:52.725Z,82.86
2023-06-21T06:59:50.718Z,83.05
2023-06-21T07:00:51.627Z,83.51
2023-06-21T07:01:50.656Z,82.87
2023-06-21T07:02:50.795Z,83.47
2023-06-21T07:03:50.683Z,81.48
2023-06-21T07:04:50.706Z,80.44
2023-06-21T07:05:50.682Z,79.41
2023-06-21T07:06:50.611Z,78.81
2023-06-21T07:07:50.622Z,79.21
2023-06-21T07:08:50.615Z,78.22
2023-06-21T07:09:50.593Z,77.72
2023-06-21T07:10:50.605Z,78.08
2023-06-21T07:11:50.597Z,78.31
2023-06-21T07:12:50.572Z,78.81
2023-06-21T07:13:50.616Z,78.31
2023-06-21T07:14:50.633Z,77.62
2023-06-21T07:15:50.603Z,77.22
2023-06-21T07:16:50.614Z,77.82
2023-06-21T07:17:50.618Z,77.92
2023-06-21T07:18:50.549Z,77.58
2023-06-21T07:19:50.584Z,77.58
2023-06-21T07:20:50.555Z,77.68
2023-06-21T07:21:50.518Z,77.58
2023-06-21T07:22:50.532Z,78.28
2023-06-21T07:23:50.568Z,76.98
2023-06-21T07:24:50.477Z,77.48
2023-06-21T07:25:50.506Z,76.68
2023-06-21T07:26:50.766Z,77.09
2023-06-21T07:27:50.481Z,79.03
2023-06-21T07:28:50.499Z,77.45
2023-06-21T07:29:50.496Z,78.04
2023-06-21T07:30:50.483Z,76.02
2023-06-21T07:31:50.539Z,75.22
2023-06-21T07:32:50.531Z,75.62
2023-06-21T07:33:50.457Z,77.11
2023-06-21T07:34:50.479Z,76.51
2023-06-21T07:35:50.414Z,79.06
2023-06-21T07:36:50.456Z,74.85
2023-06-21T07:37:50.429Z,73.86
2023-06-21T07:38:52.481Z,73.93
2023-06-21T07:39:55.134Z,73.93
2023-06-21T07:40:50.397Z,74.02
2023-06-21T07:41:54.055Z,73.89
2023-06-21T07:42:52.504Z,73.99
2023-06-21T07:43:50.413Z,72.10
2023-06-21T07:44:50.424Z,70.88
2023-06-21T07:45:56.998Z,70.75
2023-06-21T07:46:52.469Z,70.18
2023-06-21T07:47:50.453Z,71.97
2023-06-21T07:48:50.394Z,72.23
2023-06-21T07:49:50.386Z,71.57
2023-06-21T07:50:50.381Z,72.07
2023-06-21T07:51:50.409Z,73.75
2023-06-21T07:52:50.401Z,73.22
2023-06-21T07:53:50.392Z,71.20
2023-06-21T07:54:50.446Z,70.71
2023-06-21T07:55:50.329Z,70.42
2023-06-21T07:56:50.335Z,70.31
2023-06-21T07:57:50.356Z,69.82
2023-06-21T07:58:50.354Z,70.21
2023-06-21T07:59:50.318Z,70.94
2023-06-21T08:00:50.369Z,71.67
2023-06-21T08:01:50.344Z,72.96
2023-06-21T08:02:50.341Z,70.72
2023-06-21T08:03:50.321Z,70.22
2023-06-21T08:04:50.288Z,71.21
2023-06-21T08:05:50.310Z,72.63
2023-06-21T08:06:50.278Z,72.30
2023-06-21T08:07:50.337Z,72.44
2023-06-21T08:08:50.339Z,72.60
2023-06-21T08:09:50.289Z,72.30
2023-06-21T08:10:50.282Z,71.81
2023-06-21T08:11:50.292Z,70.91
2023-06-21T08:12:50.244Z,70.91
2023-06-21T08:13:51.272Z,72.10
2023-06-21T08:14:50.232Z,70.68
2023-06-21T08:15:50.269Z,70.48
2023-06-21T08:16:50.227Z,73.16
2023-06-21T08:17:50.240Z,72.96
2023-06-21T08:18:50.244Z,73.95
2023-06-21T08:19:50.226Z,72.60
2023-06-21T08:20:50.200Z,72.17
2023-06-21T08:21:50.212Z,73.36
2023-06-21T08:22:50.184Z,73.99
2023-06-21T08:23:50.245Z,75.18
2023-06-21T08:24:50.184Z,75.59
2023-06-21T08:25:50.166Z,74.29
2023-06-21T08:26:50.162Z,73.96
2023-06-21T08:27:50.193Z,72.86
2023-06-21T08:28:50.229Z,73.56
2023-06-21T08:29:50.149Z,72.73
2023-06-21T08:30:50.158Z,72.44
2023-06-21T08:31:50.215Z,72.20
2023-06-21T08:32:50.162Z,72.10
2023-06-21T08:33:50.193Z,72.10
2023-06-21T08:34:50.175Z,71.70
2023-06-21T08:35:50.150Z,72.00
2023-06-21T08:36:50.143Z,71.57
2023-06-21T08:37:50.118Z,71.97
2023-06-21T08:38:50.140Z,72.27
2023-06-21T08:39:50.162Z,72.36
2023-06-21T08:40:50.133Z,71.24
2023-06-21T08:41:50.093Z,71.80
2023-06-21T08:42:50.119Z,71.01
2023-06-21T08:43:50.146Z,71.94
2023-06-21T08:44:50.132Z,69.26
2023-06-21T08:45:50.165Z,69.13
2023-06-21T08:46:50.120Z,70.21
2023-06-21T08:47:50.213Z,68.53
2023-06-21T08:48:50.173Z,68.93
2023-06-21T08:49:50.119Z,69.32
2023-06-21T08:50:50.161Z,69.16
2023-06-21T08:51:50.217Z,68.17
2023-06-21T08:52:50.182Z,69.65
2023-06-21T08:53:50.067Z,68.13
2023-06-21T08:54:50.022Z,68.04
2023-06-21T08:55:50.058Z,69.16
2023-06-21T08:56:50.053Z,69.13
2023-06-21T08:57:49.984Z,72.46
2023-06-21T08:58:50.020Z,71.27
2023-06-21T08:59:51.053Z,69.19
2023-06-21T09:00:50.021Z,68.50
2023-06-21T09:01:50.139Z,69.92
2023-06-21T09:02:50.399Z,69.95
2023-06-21T09:03:50.055Z,70.45
2023-06-21T09:04:50.171Z,70.35
2023-06-21T09:05:49.975Z,72.27
2023-06-21T09:06:50.058Z,71.34
2023-06-21T09:07:49.979Z,70.35
2023-06-21T09:08:50.021Z,70.15
2023-06-21T09:09:49.946Z,70.94
2023-06-21T09:10:49.949Z,70.61
2023-06-21T09:11:49.952Z,69.72
2023-06-21T09:12:51.809Z,69.13
2023-06-21T09:13:49.930Z,70.18
2023-06-21T09:14:49.890Z,69.85
2023-06-21T09:15:49.947Z,67.54
2023-06-21T09:16:49.974Z,67.38
2023-06-21T09:18:23.723Z,68.50
2023-06-21T09:18:49.940Z,68.24
2023-06-21T09:19:49.914Z,69.65
2023-06-21T09:20:49.979Z,70.12
2023-06-21T09:21:49.907Z,69.16
2023-06-21T09:22:49.944Z,67.11
2023-06-21T09:23:49.939Z,65.77
2023-06-21T09:24:49.901Z,63.99
2023-06-21T09:25:49.907Z,63.70
2023-06-21T09:26:49.900Z,63.84
2023-06-21T09:27:49.868Z,60.46
2023-06-21T09:28:49.957Z,62.12
2023-06-21T09:29:49.849Z,63.24
2023-06-21T09:30:49.865Z,66.23
2023-06-21T09:31:49.853Z,65.37
2023-06-21T09:32:49.910Z,62.59
2023-06-21T09:33:49.987Z,61.93
2023-06-21T09:34:49.911Z,63.40
2023-06-21T09:35:49.915Z,60.39
2023-06-21T09:36:49.811Z,57.56
2023-06-21T09:37:49.845Z,57.46
2023-06-21T09:38:49.861Z,56.97
2023-06-21T09:39:49.975Z,56.84
2023-06-21T09:40:49.808Z,55.98
2023-06-21T09:41:49.813Z,55.82
2023-06-21T09:42:49.811Z,56.97
2023-06-21T09:43:49.817Z,55.77
2023-06-21T09:44:49.795Z,54.13
2023-06-21T09:45:49.822Z,55.71
2023-06-21T09:46:49.752Z,57.14
2023-06-21T09:47:49.855Z,55.12
2023-06-21T09:48:50.278Z,53.03
2023-06-21T09:49:50.755Z,51.44
2023-06-21T09:50:49.806Z,54.41
2023-06-21T09:51:49.746Z,53.40
2023-06-21T09:52:49.735Z,55.99
2023-06-21T09:53:49.717Z,53.59
2023-06-21T09:54:49.840Z,52.83
2023-06-21T09:55:49.746Z,51.71
2023-06-21T09:56:49.855Z,51.05
2023-06-21T09:57:49.709Z,55.22
2023-06-21T09:58:49.734Z,57.68
2023-06-21T09:59:49.699Z,56.10
2023-06-21T10:00:49.758Z,52.17
2023-06-21T10:01:49.960Z,51.25
2023-06-21T10:02:49.749Z,51.43
2023-06-21T10:03:49.831Z,47.00
2023-06-21T10:04:49.700Z,44.99
2023-06-21T10:05:49.693Z,42.71
2023-06-21T10:06:49.729Z,43.64
2023-06-21T10:07:49.734Z,42.03
2023-06-21T10:08:49.681Z,40.71
2023-06-21T10:09:49.689Z,39.84
2023-06-21T10:10:49.755Z,39.29
2023-06-21T10:11:49.745Z,39.59
2023-06-21T10:12:50.231Z,38.91
2023-06-21T10:13:49.660Z,39.14
2023-06-21T10:14:49.640Z,41.22
2023-06-21T10:15:49.632Z,42.40
2023-06-21T10:16:49.677Z,41.70
2023-06-21T10:17:59.903Z,40.38
2023-06-21T10:18:49.671Z,39.34
2023-06-21T10:19:49.658Z,38.79
2023-06-21T10:20:49.688Z,38.95
2023-06-21T10:21:49.663Z,40.46
2023-06-21T10:22:49.617Z,41.82
2023-06-21T10:23:50.160Z,43.38
2023-06-21T10:24:49.631Z,45.51
2023-06-21T10:25:49.611Z,46.37
2023-06-21T10:26:49.631Z,46.41
2023-06-21T10:27:49.589Z,47.85
2023-06-21T10:28:49.634Z,51.05
2023-06-21T10:29:49.669Z,51.49
2023-06-21T10:30:49.592Z,50.63
2023-06-21T10:31:50.329Z,51.64
2023-06-21T10:32:49.656Z,49.51
2023-06-21T10:33:49.605Z,47.34
2023-06-21T10:34:49.690Z,44.84
2023-06-21T10:35:49.600Z,43.30
2023-06-21T10:36:49.577Z,43.02
2023-06-21T10:37:49.641Z,42.86
2023-06-21T10:38:49.553Z,44.01
2023-06-21T10:39:58.161Z,47.19
2023-06-21T10:40:50.252Z,51.34
2023-06-21T10:41:49.580Z,54.61
2023-06-21T10:42:49.568Z,55.85
2023-06-21T10:43:49.540Z,56.56
2023-06-21T10:44:49.579Z,52.03
2023-06-21T10:45:49.642Z,51.37
2023-06-21T10:46:49.588Z,48.70
2023-06-21T10:47:49.545Z,51.17
2023-06-21T10:48:49.568Z,51.91
2023-06-21T10:49:49.508Z,53.44
2023-06-21T10:50:49.525Z,51.84
2023-06-21T10:51:49.608Z,50.98
2023-06-21T10:52:49.513Z,48.11
2023-06-21T10:53:49.489Z,47.61
2023-06-21T10:54:49.505Z,46.15
2023-06-21T10:55:49.486Z,44.67
2023-06-21T10:56:49.537Z,43.50
2023-06-21T10:57:49.485Z,43.96
2023-06-21T10:58:49.515Z,42.64
2023-06-21T10:59:49.473Z,45.14
2023-06-21T11:00:49.475Z,45.20
2023-06-21T11:01:49.689Z,46.80
2023-06-21T11:02:49.500Z,49.36
2023-06-21T11:03:49.489Z,51.81
2023-06-21T11:04:54.252Z,54.14
2023-06-21T11:05:51.485Z,55.58
2023-06-21T11:06:49.435Z,56.00
2023-06-21T11:07:49.464Z,55.80
2023-06-21T11:08:49.454Z,51.46
2023-06-21T11:09:49.453Z,48.68
2023-06-21T11:10:49.449Z,45.22
2023-06-21T11:11:49.435Z,45.09
2023-06-21T11:12:49.443Z,41.33
2023-06-21T11:13:49.539Z,42.05
2023-06-21T11:14:49.475Z,42.70
2023-06-21T11:15:49.473Z,42.66
2023-06-21T11:16:50.404Z,42.36
2023-06-21T11:17:49.445Z,41.11
2023-06-21T11:18:49.484Z,38.78
2023-06-21T11:19:49.527Z,37.42
2023-06-21T11:20:49.394Z,38.41
2023-06-21T11:21:49.427Z,36.44
2023-06-21T11:22:49.390Z,38.83
2023-06-21T11:23:49.400Z,38.28
2023-06-21T11:24:49.417Z,37.12
2023-06-21T11:25:49.402Z,36.53
2023-06-21T11:26:49.377Z,35.45
2023-06-21T11:27:49.378Z,35.84
2023-06-21T11:28:49.473Z,37.48
2023-06-21T11:29:49.426Z,37.10
2023-06-21T11:30:49.412Z,37.88
2023-06-21T11:31:49.596Z,36.52
2023-06-21T11:32:49.411Z,36.79
2023-06-21T11:33:49.400Z,36.13
2023-06-21T11:34:49.371Z,38.37
2023-06-21T11:35:49.356Z,39.18
2023-06-21T11:36:49.360Z,40.40
2023-06-21T11:37:49.421Z,37.60
2023-06-21T11:38:49.364Z,37.96
2023-06-21T11:39:49.368Z,38.14
2023-06-21T11:40:49.945Z,37.88
2023-06-21T11:41:49.406Z,37.90
2023-06-21T11:42:49.380Z,36.91
2023-06-21T11:43:49.396Z,38.54
2023-06-21T11:44:49.471Z,42.23
2023-06-21T11:45:50.720Z,41.26
2023-06-21T11:46:50.439Z,39.49
2023-06-21T11:47:49.403Z,40.67
2023-06-21T11:48:49.411Z,41.36
2023-06-21T11:49:49.332Z,42.05
2023-06-21T11:50:49.313Z,42.25
2023-06-21T11:51:49.418Z,40.91
2023-06-21T11:52:49.434Z,43.75
2023-06-21T11:53:49.349Z,43.24
2023-06-21T11:54:49.379Z,44.86
2023-06-21T11:55:49.387Z,45.57
2023-06-21T11:56:49.357Z,46.95
2023-06-21T11:57:49.344Z,46.59
2023-06-21T11:58:49.377Z,45.85
2023-06-21T11:59:49.222Z,47.09
2023-06-21T12:00:49.307Z,46.99
2023-06-21T12:01:49.328Z,46.89
2023-06-21T12:02:49.302Z,48.02
2023-06-21T12:03:49.349Z,49.41
2023-06-21T12:04:49.309Z,50.90
2023-06-21T12:05:49.319Z,49.77
2023-06-21T12:06:49.268Z,48.19
2023-06-21T12:07:49.205Z,48.85
2023-06-21T12:08:49.229Z,49.77
2023-06-21T12:09:51.994Z,48.80
2023-06-21T12:10:49.193Z,51.73
2023-06-21T12:11:49.202Z,51.22
2023-06-21T12:12:49.323Z,48.38
2023-06-21T12:13:49.132Z,50.73
2023-06-21T12:14:49.159Z,50.90
2023-06-21T12:15:49.182Z,51.29
2023-06-21T12:16:49.146Z,52.13
2023-06-21T12:17:49.240Z,52.15
2023-06-21T12:18:49.192Z,50.95
2023-06-21T12:19:49.156Z,53.11
2023-06-21T12:20:50.601Z,52.42
2023-06-21T12:21:49.138Z,51.15
2023-06-21T12:22:49.127Z,51.84
2023-06-21T12:23:49.211Z,51.32
2023-06-21T12:24:49.141Z,53.45
2023-06-21T12:25:49.116Z,56.13
2023-06-21T12:26:49.109Z,51.62
2023-06-21T12:27:49.128Z,52.69
2023-06-21T12:28:49.155Z,54.56
2023-06-21T12:29:49.128Z,53.21
2023-06-21T12:30:49.149Z,53.63
2023-06-21T12:31:49.090Z,51.93
2023-06-21T12:32:49.145Z,55.54
2023-06-21T12:33:49.103Z,53.58
2023-06-21T12:34:49.154Z,51.42
2023-06-21T12:35:49.110Z,49.58
2023-06-21T12:36:49.076Z,50.29
2023-06-21T12:37:49.102Z,52.11
2023-06-21T12:38:49.048Z,52.18
2023-06-21T12:39:49.135Z,51.30
2023-06-21T12:40:49.057Z,53.23
2023-06-21T12:41:49.070Z,54.32
2023-06-21T12:42:49.041Z,53.33
2023-06-21T12:43:49.063Z,54.35
2023-06-21T12:44:49.110Z,54.74
2023-06-21T12:45:49.078Z,53.46
2023-06-21T12:46:49.048Z,55.94
2023-06-21T12:47:49.063Z,54.47
2023-06-21T12:48:49.042Z,53.29
2023-06-21T12:49:49.041Z,54.49
2023-06-21T12:50:49.434Z,52.31
2023-06-21T12:51:49.026Z,54.47
2023-06-21T12:52:48.979Z,53.68